sensor_id;sensor_type;location;lat;lon;timestamp;temperature;humidity
30594;DHT22;33199;47.590;8.300;2023-02-18T00:00:55;10.20;74.10
30594;DHT22;33199;47.590;8.300;2023-02-18T00:03:22;10.20;74.10
30594;DHT22;33199;47.590;8.300;2023-02-18T00:05:48;10.20;74.00
30594;DHT22;33199;47.590;8.300;2023-02-18T00:08:14;10.20;74.10
30594;DHT22;33199;47.590;8.300;2023-02-18T00:10:40;10.20;74.20
30594;DHT22;33199;47.590;8.300;2023-02-18T00:13:05;10.20;74.10
30594;DHT22;33199;47.590;8.300;2023-02-18T00:15:31;10.20;74.10
30594;DHT22;33199;47.590;8.300;2023-02-18T00:17:56;10.20;74.10
30594;DHT22;33199;47.590;8.300;2023-02-18T00:20:22;10.20;74.10
30594;DHT22;33199;47.590;8.300;2023-02-18T00:22:47;10.20;74.10
30594;DHT22;33199;47.590;8.300;2023-02-18T00:25:12;10.20;74.10
30594;DHT22;33199;47.590;8.300;2023-02-18T00:27:38;10.20;74.20
30594;DHT22;33199;47.590;8.300;2023-02-18T00:30:04;10.20;74.20
30594;DHT22;33199;47.590;8.300;2023-02-18T00:32:30;10.20;74.20
30594;DHT22;33199;47.590;8.300;2023-02-18T00:34:55;10.20;74.20
30594;DHT22;33199;47.590;8.300;2023-02-18T00:37:20;10.20;74.20
30594;DHT22;33199;47.590;8.300;2023-02-18T00:39:46;10.20;74.20
30594;DHT22;33199;47.590;8.300;2023-02-18T00:42:12;10.20;74.20
30594;DHT22;33199;47.590;8.300;2023-02-18T00:44:38;10.20;74.20
30594;DHT22;33199;47.590;8.300;2023-02-18T00:47:04;10.20;74.20
30594;DHT22;33199;47.590;8.300;2023-02-18T00:49:29;10.20;74.20
30594;DHT22;33199;47.590;8.300;2023-02-18T00:51:55;10.20;74.20
30594;DHT22;33199;47.590;8.300;2023-02-18T00:54:21;10.20;74.20
30594;DHT22;33199;47.590;8.300;2023-02-18T00:56:46;10.20;74.20
30594;DHT22;33199;47.590;8.300;2023-02-18T00:59:12;10.20;74.30
30594;DHT22;33199;47.590;8.300;2023-02-18T01:01:37;10.10;74.10
30594;DHT22;33199;47.590;8.300;2023-02-18T01:04:03;10.20;75.00
30594;DHT22;33199;47.590;8.300;2023-02-18T01:06:28;10.20;74.20
30594;DHT22;33199;47.590;8.300;2023-02-18T01:08:54;10.20;74.30
30594;DHT22;33199;47.590;8.300;2023-02-18T01:11:19;10.20;74.20
30594;DHT22;33199;47.590;8.300;2023-02-18T01:13:45;10.20;74.20
30594;DHT22;33199;47.590;8.300;2023-02-18T01:16:10;10.20;74.20
30594;DHT22;33199;47.590;8.300;2023-02-18T01:18:36;10.20;74.20
30594;DHT22;33199;47.590;8.300;2023-02-18T01:21:02;10.20;74.20
30594;DHT22;33199;47.590;8.300;2023-02-18T01:23:29;10.20;74.20
30594;DHT22;33199;47.590;8.300;2023-02-18T01:25:56;10.20;74.30
30594;DHT22;33199;47.590;8.300;2023-02-18T01:28:21;10.20;74.50
30594;DHT22;33199;47.590;8.300;2023-02-18T01:30:50;10.20;74.20
30594;DHT22;33199;47.590;8.300;2023-02-18T01:33:16;10.10;74.20
30594;DHT22;33199;47.590;8.300;2023-02-18T01:35:41;10.20;74.40
30594;DHT22;33199;47.590;8.300;2023-02-18T01:38:07;10.20;74.30
30594;DHT22;33199;47.590;8.300;2023-02-18T01:40:33;10.20;74.40
30594;DHT22;33199;47.590;8.300;2023-02-18T01:42:58;10.10;74.30
30594;DHT22;33199;47.590;8.300;2023-02-18T01:47:59;10.10;74.40
30594;DHT22;33199;47.590;8.300;2023-02-18T01:50:25;10.10;74.40
30594;DHT22;33199;47.590;8.300;2023-02-18T01:52:51;10.10;75.10
30594;DHT22;33199;47.590;8.300;2023-02-18T01:55:17;10.10;74.40
30594;DHT22;33199;47.590;8.300;2023-02-18T01:57:42;10.10;74.40
30594;DHT22;33199;47.590;8.300;2023-02-18T02:00:09;10.10;74.40
30594;DHT22;33199;47.590;8.300;2023-02-18T02:02:38;10.20;74.40
30594;DHT22;33199;47.590;8.300;2023-02-18T02:05:04;10.20;74.40
30594;DHT22;33199;47.590;8.300;2023-02-18T02:07:30;10.10;74.40
30594;DHT22;33199;47.590;8.300;2023-02-18T02:09:56;10.20;74.40
30594;DHT22;33199;47.590;8.300;2023-02-18T02:15:04;10.10;74.40
30594;DHT22;33199;47.590;8.300;2023-02-18T02:17:36;10.10;74.40
30594;DHT22;33199;47.590;8.300;2023-02-18T02:25:09;10.10;74.40
30594;DHT22;33199;47.590;8.300;2023-02-18T02:33:05;10.10;74.40
30594;DHT22;33199;47.590;8.300;2023-02-18T02:40:37;10.10;74.40
30594;DHT22;33199;47.590;8.300;2023-02-18T02:43:18;10.10;74.40
30594;DHT22;33199;47.590;8.300;2023-02-18T02:45:53;10.10;74.40
30594;DHT22;33199;47.590;8.300;2023-02-18T02:53:36;10.10;74.40
30594;DHT22;33199;47.590;8.300;2023-02-18T02:56:04;10.10;74.40
30594;DHT22;33199;47.590;8.300;2023-02-18T02:58:29;10.10;74.40
30594;DHT22;33199;47.590;8.300;2023-02-18T03:01:00;10.10;74.50
30594;DHT22;33199;47.590;8.300;2023-02-18T03:06:07;10.10;74.40
30594;DHT22;33199;47.590;8.300;2023-02-18T03:08:47;10.10;74.40
30594;DHT22;33199;47.590;8.300;2023-02-18T03:11:14;10.10;74.40
30594;DHT22;33199;47.590;8.300;2023-02-18T03:22:17;10.10;74.40
30594;DHT22;33199;47.590;8.300;2023-02-18T03:24:37;10.10;74.40
30594;DHT22;33199;47.590;8.300;2023-02-18T03:27:05;10.10;74.40
30594;DHT22;33199;47.590;8.300;2023-02-18T03:29:33;10.10;74.40
30594;DHT22;33199;47.590;8.300;2023-02-18T03:32:00;10.10;74.40
30594;DHT22;33199;47.590;8.300;2023-02-18T03:34:31;10.10;74.40
30594;DHT22;33199;47.590;8.300;2023-02-18T03:36:57;10.10;74.40
30594;DHT22;33199;47.590;8.300;2023-02-18T03:39:25;10.10;74.40
30594;DHT22;33199;47.590;8.300;2023-02-18T03:41:51;10.10;74.40
30594;DHT22;33199;47.590;8.300;2023-02-18T03:44:17;10.10;74.50
30594;DHT22;33199;47.590;8.300;2023-02-18T03:46:43;10.10;74.40
30594;DHT22;33199;47.590;8.300;2023-02-18T03:49:09;10.10;74.40
30594;DHT22;33199;47.590;8.300;2023-02-18T03:51:35;10.10;74.40
30594;DHT22;33199;47.590;8.300;2023-02-18T03:54:00;10.10;74.40
30594;DHT22;33199;47.590;8.300;2023-02-18T03:56:26;10.10;74.40
30594;DHT22;33199;47.590;8.300;2023-02-18T03:58:52;10.10;74.40
30594;DHT22;33199;47.590;8.300;2023-02-18T04:01:17;10.10;74.40
30594;DHT22;33199;47.590;8.300;2023-02-18T04:03:43;10.10;74.40
30594;DHT22;33199;47.590;8.300;2023-02-18T04:06:08;10.10;74.30
30594;DHT22;33199;47.590;8.300;2023-02-18T04:08:34;10.10;74.40
30594;DHT22;33199;47.590;8.300;2023-02-18T04:11:00;10.10;74.40
30594;DHT22;33199;47.590;8.300;2023-02-18T04:13:26;10.10;74.30
30594;DHT22;33199;47.590;8.300;2023-02-18T04:15:51;10.10;74.30
30594;DHT22;33199;47.590;8.300;2023-02-18T04:18:17;10.10;74.30
30594;DHT22;33199;47.590;8.300;2023-02-18T04:20:43;10.10;74.30
30594;DHT22;33199;47.590;8.300;2023-02-18T04:23:10;10.10;74.30
30594;DHT22;33199;47.590;8.300;2023-02-18T04:25:36;10.10;74.30
30594;DHT22;33199;47.590;8.300;2023-02-18T04:28:02;10.10;74.30
30594;DHT22;33199;47.590;8.300;2023-02-18T04:30:27;10.10;74.30
30594;DHT22;33199;47.590;8.300;2023-02-18T04:32:53;10.10;74.30
30594;DHT22;33199;47.590;8.300;2023-02-18T04:35:18;10.10;74.30
30594;DHT22;33199;47.590;8.300;2023-02-18T04:37:44;10.10;74.30
30594;DHT22;33199;47.590;8.300;2023-02-18T04:40:10;10.10;74.20
30594;DHT22;33199;47.590;8.300;2023-02-18T04:42:35;10.10;74.30
30594;DHT22;33199;47.590;8.300;2023-02-18T04:45:01;10.10;74.30
30594;DHT22;33199;47.590;8.300;2023-02-18T04:47:26;10.10;74.20
30594;DHT22;33199;47.590;8.300;2023-02-18T04:49:52;10.10;74.30
30594;DHT22;33199;47.590;8.300;2023-02-18T04:52:17;10.10;74.30
30594;DHT22;33199;47.590;8.300;2023-02-18T04:54:43;10.10;74.30
30594;DHT22;33199;47.590;8.300;2023-02-18T04:57:08;10.10;74.30
30594;DHT22;33199;47.590;8.300;2023-02-18T04:59:34;10.10;74.40
30594;DHT22;33199;47.590;8.300;2023-02-18T05:01:59;10.10;74.30
30594;DHT22;33199;47.590;8.300;2023-02-18T05:04:26;10.10;74.20
30594;DHT22;33199;47.590;8.300;2023-02-18T05:06:52;10.00;74.20
30594;DHT22;33199;47.590;8.300;2023-02-18T05:09:17;10.10;74.30
30594;DHT22;33199;47.590;8.300;2023-02-18T05:11:43;10.10;74.30
30594;DHT22;33199;47.590;8.300;2023-02-18T05:14:08;10.10;74.30
30594;DHT22;33199;47.590;8.300;2023-02-18T05:16:34;10.00;74.30
30594;DHT22;33199;47.590;8.300;2023-02-18T05:19:00;10.10;74.40
30594;DHT22;33199;47.590;8.300;2023-02-18T05:21:25;10.00;74.30
30594;DHT22;33199;47.590;8.300;2023-02-18T05:23:51;10.10;74.40
30594;DHT22;33199;47.590;8.300;2023-02-18T05:26:16;10.10;74.40
30594;DHT22;33199;47.590;8.300;2023-02-18T05:28:42;10.10;74.40
30594;DHT22;33199;47.590;8.300;2023-02-18T05:31:07;10.00;74.40
30594;DHT22;33199;47.590;8.300;2023-02-18T05:33:32;10.00;74.30
30594;DHT22;33199;47.590;8.300;2023-02-18T05:35:58;10.00;74.40
30594;DHT22;33199;47.590;8.300;2023-02-18T05:38:25;10.00;75.10
30594;DHT22;33199;47.590;8.300;2023-02-18T05:40:50;10.10;74.40
30594;DHT22;33199;47.590;8.300;2023-02-18T05:43:16;10.10;74.40
30594;DHT22;33199;47.590;8.300;2023-02-18T05:45:41;10.10;74.40
30594;DHT22;33199;47.590;8.300;2023-02-18T05:48:07;10.00;74.40
30594;DHT22;33199;47.590;8.300;2023-02-18T05:50:32;10.00;74.40
30594;DHT22;33199;47.590;8.300;2023-02-18T05:52:58;10.00;74.30
30594;DHT22;33199;47.590;8.300;2023-02-18T05:55:23;10.00;74.40
30594;DHT22;33199;47.590;8.300;2023-02-18T05:57:49;10.00;74.40
30594;DHT22;33199;47.590;8.300;2023-02-18T06:00:15;10.00;74.30
30594;DHT22;33199;47.590;8.300;2023-02-18T06:02:41;10.00;74.30
30594;DHT22;33199;47.590;8.300;2023-02-18T06:05:06;10.00;74.30
30594;DHT22;33199;47.590;8.300;2023-02-18T06:07:32;10.10;74.40
30594;DHT22;33199;47.590;8.300;2023-02-18T06:09:57;10.10;74.40
30594;DHT22;33199;47.590;8.300;2023-02-18T06:12:23;10.10;74.40
30594;DHT22;33199;47.590;8.300;2023-02-18T06:14:48;10.10;74.30
30594;DHT22;33199;47.590;8.300;2023-02-18T06:17:14;10.10;74.40
30594;DHT22;33199;47.590;8.300;2023-02-18T06:19:40;10.00;74.30
30594;DHT22;33199;47.590;8.300;2023-02-18T06:22:05;10.00;74.30
30594;DHT22;33199;47.590;8.300;2023-02-18T06:24:31;10.00;74.40
30594;DHT22;33199;47.590;8.300;2023-02-18T06:26:57;10.00;74.40
30594;DHT22;33199;47.590;8.300;2023-02-18T06:29:22;10.00;74.40
30594;DHT22;33199;47.590;8.300;2023-02-18T06:31:48;10.00;74.30
30594;DHT22;33199;47.590;8.300;2023-02-18T06:34:13;10.00;74.40
30594;DHT22;33199;47.590;8.300;2023-02-18T06:36:39;10.00;74.40
30594;DHT22;33199;47.590;8.300;2023-02-18T06:39:06;10.10;74.40
30594;DHT22;33199;47.590;8.300;2023-02-18T06:41:32;10.00;74.40
30594;DHT22;33199;47.590;8.300;2023-02-18T06:43:57;10.00;74.40
30594;DHT22;33199;47.590;8.300;2023-02-18T06:46:23;10.10;74.40
30594;DHT22;33199;47.590;8.300;2023-02-18T06:48:48;10.00;74.30
30594;DHT22;33199;47.590;8.300;2023-02-18T06:51:14;10.00;74.40
30594;DHT22;33199;47.590;8.300;2023-02-18T06:53:40;10.10;74.40
30594;DHT22;33199;47.590;8.300;2023-02-18T06:56:06;10.00;74.30
30594;DHT22;33199;47.590;8.300;2023-02-18T06:58:32;10.00;74.40
30594;DHT22;33199;47.590;8.300;2023-02-18T07:00:57;10.00;74.50
30594;DHT22;33199;47.590;8.300;2023-02-18T07:03:23;10.00;74.40
30594;DHT22;33199;47.590;8.300;2023-02-18T07:05:48;10.00;74.40
30594;DHT22;33199;47.590;8.300;2023-02-18T07:08:14;10.00;74.40
30594;DHT22;33199;47.590;8.300;2023-02-18T07:10:39;10.00;74.40
30594;DHT22;33199;47.590;8.300;2023-02-18T07:13:05;10.00;74.40
30594;DHT22;33199;47.590;8.300;2023-02-18T07:15:30;10.00;74.40
30594;DHT22;33199;47.590;8.300;2023-02-18T07:17:56;10.00;74.30
30594;DHT22;33199;47.590;8.300;2023-02-18T07:20:21;10.00;74.30
30594;DHT22;33199;47.590;8.300;2023-02-18T07:22:47;10.00;74.70
30594;DHT22;33199;47.590;8.300;2023-02-18T07:25:13;10.00;74.30
30594;DHT22;33199;47.590;8.300;2023-02-18T07:27:38;10.00;74.40
30594;DHT22;33199;47.590;8.300;2023-02-18T07:30:04;10.00;74.40
30594;DHT22;33199;47.590;8.300;2023-02-18T07:32:30;10.00;74.40
30594;DHT22;33199;47.590;8.300;2023-02-18T07:34:55;10.00;74.50
30594;DHT22;33199;47.590;8.300;2023-02-18T07:37:21;10.00;74.40
30594;DHT22;33199;47.590;8.300;2023-02-18T07:39:47;10.00;74.50
30594;DHT22;33199;47.590;8.300;2023-02-18T07:42:12;10.00;74.50
30594;DHT22;33199;47.590;8.300;2023-02-18T07:44:38;10.00;74.50
30594;DHT22;33199;47.590;8.300;2023-02-18T07:47:04;10.00;74.50
30594;DHT22;33199;47.590;8.300;2023-02-18T07:49:30;10.00;74.50
30594;DHT22;33199;47.590;8.300;2023-02-18T07:51:56;10.00;74.50
30594;DHT22;33199;47.590;8.300;2023-02-18T07:54:21;10.00;74.40
30594;DHT22;33199;47.590;8.300;2023-02-18T07:56:47;10.00;74.40
30594;DHT22;33199;47.590;8.300;2023-02-18T07:59:13;10.00;74.40
30594;DHT22;33199;47.590;8.300;2023-02-18T08:01:39;10.00;74.50
30594;DHT22;33199;47.590;8.300;2023-02-18T08:04:04;10.00;74.40
30594;DHT22;33199;47.590;8.300;2023-02-18T08:06:32;10.00;74.40
30594;DHT22;33199;47.590;8.300;2023-02-18T08:08:58;10.00;74.40
30594;DHT22;33199;47.590;8.300;2023-02-18T08:11:24;10.00;74.40
30594;DHT22;33199;47.590;8.300;2023-02-18T08:13:49;10.00;74.40
30594;DHT22;33199;47.590;8.300;2023-02-18T08:16:15;10.00;74.40
30594;DHT22;33199;47.590;8.300;2023-02-18T08:18:41;10.00;74.40
30594;DHT22;33199;47.590;8.300;2023-02-18T08:21:06;10.00;74.40
30594;DHT22;33199;47.590;8.300;2023-02-18T08:23:32;10.00;74.30
30594;DHT22;33199;47.590;8.300;2023-02-18T08:25:57;10.00;74.30
30594;DHT22;33199;47.590;8.300;2023-02-18T08:28:23;10.00;74.40
30594;DHT22;33199;47.590;8.300;2023-02-18T08:30:49;10.00;74.40
30594;DHT22;33199;47.590;8.300;2023-02-18T08:33:15;10.00;74.50
30594;DHT22;33199;47.590;8.300;2023-02-18T08:35:41;10.00;74.40
30594;DHT22;33199;47.590;8.300;2023-02-18T08:38:07;10.00;74.40
30594;DHT22;33199;47.590;8.300;2023-02-18T08:40:32;10.00;74.50
30594;DHT22;33199;47.590;8.300;2023-02-18T08:42:58;10.00;74.50
30594;DHT22;33199;47.590;8.300;2023-02-18T08:45:23;10.00;74.50
30594;DHT22;33199;47.590;8.300;2023-02-18T08:47:49;10.00;74.50
30594;DHT22;33199;47.590;8.300;2023-02-18T08:50:14;10.00;74.50
30594;DHT22;33199;47.590;8.300;2023-02-18T08:52:40;10.10;79.00
30594;DHT22;33199;47.590;8.300;2023-02-18T08:55:05;10.30;80.70
30594;DHT22;33199;47.590;8.300;2023-02-18T08:57:31;10.50;80.00
30594;DHT22;33199;47.590;8.300;2023-02-18T08:59:57;10.60;79.80
30594;DHT22;33199;47.590;8.300;2023-02-18T09:02:22;10.80;79.20
30594;DHT22;33199;47.590;8.300;2023-02-18T09:04:48;10.80;78.40
30594;DHT22;33199;47.590;8.300;2023-02-18T09:07:13;11.00;78.60
30594;DHT22;33199;47.590;8.300;2023-02-18T09:09:38;11.00;78.40
30594;DHT22;33199;47.590;8.300;2023-02-18T09:12:04;11.10;78.20
30594;DHT22;33199;47.590;8.300;2023-02-18T09:14:30;11.10;78.10
30594;DHT22;33199;47.590;8.300;2023-02-18T09:16:56;11.20;77.60
30594;DHT22;33199;47.590;8.300;2023-02-18T09:19:21;11.20;77.50
30594;DHT22;33199;47.590;8.300;2023-02-18T09:21:47;11.30;77.40
30594;DHT22;33199;47.590;8.300;2023-02-18T09:24:12;11.30;77.30
30594;DHT22;33199;47.590;8.300;2023-02-18T09:26:38;11.30;76.90
30594;DHT22;33199;47.590;8.300;2023-02-18T09:29:04;11.40;76.80
30594;DHT22;33199;47.590;8.300;2023-02-18T09:31:30;11.40;76.50
30594;DHT22;33199;47.590;8.300;2023-02-18T09:33:56;11.50;76.40
30594;DHT22;33199;47.590;8.300;2023-02-18T09:36:22;11.50;76.20
30594;DHT22;33199;47.590;8.300;2023-02-18T09:38:48;11.40;76.10
30594;DHT22;33199;47.590;8.300;2023-02-18T09:43:49;11.30;76.10
30594;DHT22;33199;47.590;8.300;2023-02-18T09:46:21;11.20;76.20
30594;DHT22;33199;47.590;8.300;2023-02-18T09:48:48;11.20;76.20
30594;DHT22;33199;47.590;8.300;2023-02-18T09:51:15;11.10;76.20
30594;DHT22;33199;47.590;8.300;2023-02-18T09:53:41;11.10;76.30
30594;DHT22;33199;47.590;8.300;2023-02-18T09:56:11;11.10;76.30
30594;DHT22;33199;47.590;8.300;2023-02-18T09:58:38;11.00;76.30
30594;DHT22;33199;47.590;8.300;2023-02-18T10:03:48;11.00;76.30
30594;DHT22;33199;47.590;8.300;2023-02-18T10:06:18;10.90;77.00
30594;DHT22;33199;47.590;8.300;2023-02-18T10:08:48;10.90;76.30
30594;DHT22;33199;47.590;8.300;2023-02-18T10:11:17;10.90;76.30
30594;DHT22;33199;47.590;8.300;2023-02-18T10:13:45;10.90;76.30
30594;DHT22;33199;47.590;8.300;2023-02-18T10:16:14;10.90;76.20
30594;DHT22;33199;47.590;8.300;2023-02-18T10:18:41;10.90;76.30
30594;DHT22;33199;47.590;8.300;2023-02-18T10:21:10;10.90;76.30
30594;DHT22;33199;47.590;8.300;2023-02-18T10:23:37;10.80;76.20
30594;DHT22;33199;47.590;8.300;2023-02-18T10:26:05;10.80;76.20
30594;DHT22;33199;47.590;8.300;2023-02-18T10:28:31;10.80;76.20
30594;DHT22;33199;47.590;8.300;2023-02-18T10:30:59;10.80;76.20
30594;DHT22;33199;47.590;8.300;2023-02-18T10:33:32;10.80;76.10
30594;DHT22;33199;47.590;8.300;2023-02-18T10:41:14;10.80;76.10
30594;DHT22;33199;47.590;8.300;2023-02-18T10:43:47;10.80;76.10
30594;DHT22;33199;47.590;8.300;2023-02-18T10:46:32;10.80;76.10
30594;DHT22;33199;47.590;8.300;2023-02-18T10:51:30;10.80;76.00
30594;DHT22;33199;47.590;8.300;2023-02-18T10:53:56;10.80;75.90
30594;DHT22;33199;47.590;8.300;2023-02-18T10:56:36;10.70;75.90
30594;DHT22;33199;47.590;8.300;2023-02-18T10:59:09;10.70;75.90
30594;DHT22;33199;47.590;8.300;2023-02-18T11:01:35;10.70;75.90
30594;DHT22;33199;47.590;8.300;2023-02-18T11:04:12;10.80;75.90
30594;DHT22;33199;47.590;8.300;2023-02-18T11:09:03;10.70;75.90
30594;DHT22;33199;47.590;8.300;2023-02-18T11:13:59;10.70;75.80
30594;DHT22;33199;47.590;8.300;2023-02-18T11:16:42;10.70;75.90
30594;DHT22;33199;47.590;8.300;2023-02-18T11:21:52;10.70;75.80
30594;DHT22;33199;47.590;8.300;2023-02-18T11:24:30;10.70;75.80
30594;DHT22;33199;47.590;8.300;2023-02-18T11:26:55;10.70;75.80
30594;DHT22;33199;47.590;8.300;2023-02-18T11:29:22;10.80;76.80
30594;DHT22;33199;47.590;8.300;2023-02-18T11:31:49;11.10;77.20
30594;DHT22;33199;47.590;8.300;2023-02-18T11:34:18;11.20;76.80
30594;DHT22;33199;47.590;8.300;2023-02-18T11:36:44;11.30;76.20
30594;DHT22;33199;47.590;8.300;2023-02-18T11:39:17;11.50;76.00
30594;DHT22;33199;47.590;8.300;2023-02-18T11:41:45;11.60;75.70
30594;DHT22;33199;47.590;8.300;2023-02-18T11:44:28;11.70;75.40
30594;DHT22;33199;47.590;8.300;2023-02-18T11:47:02;11.80;75.30
30594;DHT22;33199;47.590;8.300;2023-02-18T11:49:29;11.80;75.10
30594;DHT22;33199;47.590;8.300;2023-02-18T11:54:26;11.90;75.30
30594;DHT22;33199;47.590;8.300;2023-02-18T11:57:03;12.00;75.00
30594;DHT22;33199;47.590;8.300;2023-02-18T11:59:33;12.10;74.30
30594;DHT22;33199;47.590;8.300;2023-02-18T12:05:13;12.20;73.50
30594;DHT22;33199;47.590;8.300;2023-02-18T12:07:44;12.20;73.20
30594;DHT22;33199;47.590;8.300;2023-02-18T12:10:38;12.30;73.10
30594;DHT22;33199;47.590;8.300;2023-02-18T12:13:18;12.40;72.70
30594;DHT22;33199;47.590;8.300;2023-02-18T12:18:47;12.40;72.20
30594;DHT22;33199;47.590;8.300;2023-02-18T12:21:48;12.50;72.10
30594;DHT22;33199;47.590;8.300;2023-02-18T12:24:44;12.50;71.90
30594;DHT22;33199;47.590;8.300;2023-02-18T12:40:30;12.80;70.10
30594;DHT22;33199;47.590;8.300;2023-02-18T12:50:55;12.70;70.30
30594;DHT22;33199;47.590;8.300;2023-02-18T12:59:35;12.40;72.00
30594;DHT22;33199;47.590;8.300;2023-02-18T13:07:41;12.20;73.10
30594;DHT22;33199;47.590;8.300;2023-02-18T13:13:09;12.10;73.50
30594;DHT22;33199;47.590;8.300;2023-02-18T13:15:39;12.00;73.60
30594;DHT22;33199;47.590;8.300;2023-02-18T13:18:15;12.00;73.70
30594;DHT22;33199;47.590;8.300;2023-02-18T13:20:50;11.90;73.80
30594;DHT22;33199;47.590;8.300;2023-02-18T13:23:19;11.90;74.00
30594;DHT22;33199;47.590;8.300;2023-02-18T13:25:46;11.90;74.00
30594;DHT22;33199;47.590;8.300;2023-02-18T13:28:31;11.90;74.10
30594;DHT22;33199;47.590;8.300;2023-02-18T13:33:57;11.90;74.20
30594;DHT22;33199;47.590;8.300;2023-02-18T13:39:03;11.90;74.30
30594;DHT22;33199;47.590;8.300;2023-02-18T13:41:40;11.90;74.40
30594;DHT22;33199;47.590;8.300;2023-02-18T13:46:56;11.80;74.40
30594;DHT22;33199;47.590;8.300;2023-02-18T13:49:30;11.80;74.50
30594;DHT22;33199;47.590;8.300;2023-02-18T13:51:57;11.80;74.50
30594;DHT22;33199;47.590;8.300;2023-02-18T13:54:31;11.80;74.60
30594;DHT22;33199;47.590;8.300;2023-02-18T13:56:59;11.80;74.60
30594;DHT22;33199;47.590;8.300;2023-02-18T13:59:39;11.80;74.60
30594;DHT22;33199;47.590;8.300;2023-02-18T14:04:55;11.70;74.40
30594;DHT22;33199;47.590;8.300;2023-02-18T14:10:25;11.80;74.50
30594;DHT22;33199;47.590;8.300;2023-02-18T14:20:28;11.90;74.20
30594;DHT22;33199;47.590;8.300;2023-02-18T14:22:54;11.80;74.30
30594;DHT22;33199;47.590;8.300;2023-02-18T14:27:46;11.80;74.40
30594;DHT22;33199;47.590;8.300;2023-02-18T14:30:33;11.80;74.50
30594;DHT22;33199;47.590;8.300;2023-02-18T14:33:01;11.80;74.50
30594;DHT22;33199;47.590;8.300;2023-02-18T14:35:52;11.80;74.60
30594;DHT22;33199;47.590;8.300;2023-02-18T14:51:51;11.70;74.70
30594;DHT22;33199;47.590;8.300;2023-02-18T14:54:20;11.70;74.70
30594;DHT22;33199;47.590;8.300;2023-02-18T14:57:03;11.70;74.70
30594;DHT22;33199;47.590;8.300;2023-02-18T14:59:40;11.70;74.70
30594;DHT22;33199;47.590;8.300;2023-02-18T15:02:19;11.70;74.90
30594;DHT22;33199;47.590;8.300;2023-02-18T15:04:46;11.70;74.80
30594;DHT22;33199;47.590;8.300;2023-02-18T15:07:12;11.70;74.80
30594;DHT22;33199;47.590;8.300;2023-02-18T15:09:49;11.70;74.70
30594;DHT22;33199;47.590;8.300;2023-02-18T15:12:22;11.80;74.70
30594;DHT22;33199;47.590;8.300;2023-02-18T15:14:51;12.00;73.50
30594;DHT22;33199;47.590;8.300;2023-02-18T15:17:21;12.20;72.50
30594;DHT22;33199;47.590;8.300;2023-02-18T15:19:52;12.30;71.60
30594;DHT22;33199;47.590;8.300;2023-02-18T15:22:24;12.50;71.20
30594;DHT22;33199;47.590;8.300;2023-02-18T15:24:55;12.60;70.70
30594;DHT22;33199;47.590;8.300;2023-02-18T15:27:32;12.70;70.20
30594;DHT22;33199;47.590;8.300;2023-02-18T15:30:24;12.80;69.70
30594;DHT22;33199;47.590;8.300;2023-02-18T15:32:52;12.80;69.30
30594;DHT22;33199;47.590;8.300;2023-02-18T15:35:19;12.90;69.00
30594;DHT22;33199;47.590;8.300;2023-02-18T15:37:55;12.90;68.80
30594;DHT22;33199;47.590;8.300;2023-02-18T15:40:24;12.90;68.60
30594;DHT22;33199;47.590;8.300;2023-02-18T15:42:56;12.90;68.60
30594;DHT22;33199;47.590;8.300;2023-02-18T15:45:28;12.90;68.50
30594;DHT22;33199;47.590;8.300;2023-02-18T15:47:57;12.90;68.50
30594;DHT22;33199;47.590;8.300;2023-02-18T15:50:30;12.90;68.30
30594;DHT22;33199;47.590;8.300;2023-02-18T15:52:59;12.90;68.50
30594;DHT22;33199;47.590;8.300;2023-02-18T15:55:34;13.00;68.50
30594;DHT22;33199;47.590;8.300;2023-02-18T15:58:03;12.90;68.50
30594;DHT22;33199;47.590;8.300;2023-02-18T16:00:34;12.90;68.50
30594;DHT22;33199;47.590;8.300;2023-02-18T16:03:08;12.90;68.50
30594;DHT22;33199;47.590;8.300;2023-02-18T16:05:38;12.90;68.10
30594;DHT22;33199;47.590;8.300;2023-02-18T16:08:26;12.90;68.00
30594;DHT22;33199;47.590;8.300;2023-02-18T16:11:00;12.90;68.10
30594;DHT22;33199;47.590;8.300;2023-02-18T16:13:27;12.90;68.80
30594;DHT22;33199;47.590;8.300;2023-02-18T16:15:55;12.80;69.50
30594;DHT22;33199;47.590;8.300;2023-02-18T16:18:34;12.70;69.90
30594;DHT22;33199;47.590;8.300;2023-02-18T16:26:22;12.50;71.00
30594;DHT22;33199;47.590;8.300;2023-02-18T16:28:50;12.50;71.30
30594;DHT22;33199;47.590;8.300;2023-02-18T16:31:16;12.40;71.50
30594;DHT22;33199;47.590;8.300;2023-02-18T16:33:42;12.40;71.70
30594;DHT22;33199;47.590;8.300;2023-02-18T16:36:13;12.30;71.80
30594;DHT22;33199;47.590;8.300;2023-02-18T16:38:43;12.30;71.90
30594;DHT22;33199;47.590;8.300;2023-02-18T16:41:11;12.30;72.10
30594;DHT22;33199;47.590;8.300;2023-02-18T16:43:37;12.30;72.20
30594;DHT22;33199;47.590;8.300;2023-02-18T16:46:09;12.30;72.40
30594;DHT22;33199;47.590;8.300;2023-02-18T16:48:38;12.20;72.40
30594;DHT22;33199;47.590;8.300;2023-02-18T16:51:21;12.20;72.50
30594;DHT22;33199;47.590;8.300;2023-02-18T16:53:48;12.20;72.60
30594;DHT22;33199;47.590;8.300;2023-02-18T16:56:20;12.20;72.70
30594;DHT22;33199;47.590;8.300;2023-02-18T16:58:46;12.20;72.70
30594;DHT22;33199;47.590;8.300;2023-02-18T17:01:25;12.10;72.70
30594;DHT22;33199;47.590;8.300;2023-02-18T17:03:51;12.20;72.90
30594;DHT22;33199;47.590;8.300;2023-02-18T17:06:17;12.10;72.80
30594;DHT22;33199;47.590;8.300;2023-02-18T17:08:43;12.10;72.90
30594;DHT22;33199;47.590;8.300;2023-02-18T17:11:16;12.10;73.00
30594;DHT22;33199;47.590;8.300;2023-02-18T17:13:44;12.10;73.00
30594;DHT22;33199;47.590;8.300;2023-02-18T17:16:10;12.10;73.20
30594;DHT22;33199;47.590;8.300;2023-02-18T17:18:36;12.10;73.10
30594;DHT22;33199;47.590;8.300;2023-02-18T17:21:01;12.10;73.20
30594;DHT22;33199;47.590;8.300;2023-02-18T17:23:28;12.10;73.20
30594;DHT22;33199;47.590;8.300;2023-02-18T17:25:54;12.10;73.20
30594;DHT22;33199;47.590;8.300;2023-02-18T17:28:19;12.10;73.20
30594;DHT22;33199;47.590;8.300;2023-02-18T17:30:47;12.00;73.20
30594;DHT22;33199;47.590;8.300;2023-02-18T17:33:16;12.10;73.30
30594;DHT22;33199;47.590;8.300;2023-02-18T17:35:42;12.00;73.30
30594;DHT22;33199;47.590;8.300;2023-02-18T17:38:14;12.00;73.30
30594;DHT22;33199;47.590;8.300;2023-02-18T17:40:40;12.00;73.40
30594;DHT22;33199;47.590;8.300;2023-02-18T17:43:08;12.00;73.40
30594;DHT22;33199;47.590;8.300;2023-02-18T17:45:41;12.00;73.40
30594;DHT22;33199;47.590;8.300;2023-02-18T17:48:08;12.00;73.40
30594;DHT22;33199;47.590;8.300;2023-02-18T17:50:34;12.00;73.40
30594;DHT22;33199;47.590;8.300;2023-02-18T17:52:59;12.00;73.40
30594;DHT22;33199;47.590;8.300;2023-02-18T17:55:31;12.00;73.50
30594;DHT22;33199;47.590;8.300;2023-02-18T17:57:57;12.00;73.50
30594;DHT22;33199;47.590;8.300;2023-02-18T18:00:27;12.00;73.50